sensor_id;sensor_type;location;lat;lon;timestamp;P1;durP1;ratioP1;P2;durP2;ratioP2
14975;SDS011;7584;60.468;25.126;2023-05-07T00:00:25;1.50;;;1.40;;
14975;SDS011;7584;60.468;25.126;2023-05-07T00:02:50;1.97;;;1.20;;
14975;SDS011;7584;60.468;25.126;2023-05-07T00:05:16;2.73;;;1.20;;
14975;SDS011;7584;60.468;25.126;2023-05-07T00:07:41;1.73;;;1.30;;
14975;SDS011;7584;60.468;25.126;2023-05-07T00:10:06;1.40;;;1.20;;
14975;SDS011;7584;60.468;25.126;2023-05-07T00:12:32;3.83;;;1.57;;
14975;SDS011;7584;60.468;25.126;2023-05-07T00:15:04;6.40;;;1.17;;
14975;SDS011;7584;60.468;25.126;2023-05-07T00:17:30;2.30;;;1.30;;
14975;SDS011;7584;60.468;25.126;2023-05-07T00:19:55;3.47;;;1.40;;
14975;SDS011;7584;60.468;25.126;2023-05-07T00:22:21;2.87;;;1.27;;
14975;SDS011;7584;60.468;25.126;2023-05-07T00:24:52;1.83;;;1.33;;
14975;SDS011;7584;60.468;25.126;2023-05-07T00:27:31;1.70;;;1.30;;
14975;SDS011;7584;60.468;25.126;2023-05-07T00:29:56;2.67;;;1.10;;
14975;SDS011;7584;60.468;25.126;2023-05-07T00:32:21;1.27;;;0.93;;
14975;SDS011;7584;60.468;25.126;2023-05-07T00:34:46;3.40;;;1.40;;
14975;SDS011;7584;60.468;25.126;2023-05-07T00:37:12;2.57;;;1.20;;
14975;SDS011;7584;60.468;25.126;2023-05-07T00:39:37;1.40;;;1.10;;
14975;SDS011;7584;60.468;25.126;2023-05-07T00:42:02;1.87;;;1.10;;
14975;SDS011;7584;60.468;25.126;2023-05-07T00:44:28;1.60;;;1.10;;
14975;SDS011;7584;60.468;25.126;2023-05-07T00:46:54;2.27;;;1.30;;
14975;SDS011;7584;60.468;25.126;2023-05-07T00:49:20;2.13;;;1.40;;
14975;SDS011;7584;60.468;25.126;2023-05-07T00:51:46;1.40;;;1.30;;
14975;SDS011;7584;60.468;25.126;2023-05-07T00:54:12;2.23;;;1.30;;
14975;SDS011;7584;60.468;25.126;2023-05-07T00:56:38;1.23;;;1.13;;
14975;SDS011;7584;60.468;25.126;2023-05-07T00:59:04;1.83;;;1.17;;
14975;SDS011;7584;60.468;25.126;2023-05-07T01:01:30;2.77;;;1.20;;
14975;SDS011;7584;60.468;25.126;2023-05-07T01:03:56;1.43;;;1.17;;
14975;SDS011;7584;60.468;25.126;2023-05-07T01:06:23;3.03;;;1.40;;
14975;SDS011;7584;60.468;25.126;2023-05-07T01:08:48;2.13;;;1.37;;
14975;SDS011;7584;60.468;25.126;2023-05-07T01:11:15;2.00;;;1.30;;
14975;SDS011;7584;60.468;25.126;2023-05-07T01:13:41;3.80;;;1.30;;
14975;SDS011;7584;60.468;25.126;2023-05-07T01:16:07;2.37;;;1.30;;
14975;SDS011;7584;60.468;25.126;2023-05-07T01:18:33;1.43;;;1.07;;
14975;SDS011;7584;60.468;25.126;2023-05-07T01:20:58;1.20;;;1.00;;
14975;SDS011;7584;60.468;25.126;2023-05-07T01:23:24;2.23;;;1.20;;
14975;SDS011;7584;60.468;25.126;2023-05-07T01:25:54;2.43;;;1.17;;
14975;SDS011;7584;60.468;25.126;2023-05-07T01:28:19;2.23;;;1.30;;
14975;SDS011;7584;60.468;25.126;2023-05-07T01:30:46;2.63;;;1.20;;
14975;SDS011;7584;60.468;25.126;2023-05-07T01:33:13;1.43;;;1.20;;
14975;SDS011;7584;60.468;25.126;2023-05-07T01:35:40;5.47;;;1.57;;
14975;SDS011;7584;60.468;25.126;2023-05-07T01:38:07;3.70;;;1.53;;
14975;SDS011;7584;60.468;25.126;2023-05-07T01:40:33;1.87;;;1.30;;
14975;SDS011;7584;60.468;25.126;2023-05-07T01:42:59;3.07;;;1.40;;
14975;SDS011;7584;60.468;25.126;2023-05-07T01:45:24;2.17;;;1.50;;
14975;SDS011;7584;60.468;25.126;2023-05-07T01:47:50;4.93;;;1.73;;
14975;SDS011;7584;60.468;25.126;2023-05-07T01:50:17;3.37;;;1.50;;
14975;SDS011;7584;60.468;25.126;2023-05-07T01:52:43;1.93;;;1.50;;
14975;SDS011;7584;60.468;25.126;2023-05-07T01:55:08;1.77;;;1.20;;
14975;SDS011;7584;60.468;25.126;2023-05-07T01:57:34;1.97;;;1.37;;
14975;SDS011;7584;60.468;25.126;2023-05-07T01:59:59;4.83;;;1.30;;
14975;SDS011;7584;60.468;25.126;2023-05-07T02:02:24;2.27;;;1.37;;
14975;SDS011;7584;60.468;25.126;2023-05-07T02:04:50;1.90;;;1.40;;
14975;SDS011;7584;60.468;25.126;2023-05-07T02:07:15;4.63;;;1.63;;
14975;SDS011;7584;60.468;25.126;2023-05-07T02:09:40;1.70;;;1.20;;
14975;SDS011;7584;60.468;25.126;2023-05-07T02:12:06;2.90;;;1.37;;
14975;SDS011;7584;60.468;25.126;2023-05-07T02:14:31;4.13;;;1.90;;
14975;SDS011;7584;60.468;25.126;2023-05-07T02:16:56;2.30;;;1.50;;
14975;SDS011;7584;60.468;25.126;2023-05-07T02:19:21;1.77;;;1.33;;
14975;SDS011;7584;60.468;25.126;2023-05-07T02:21:47;3.20;;;1.60;;
14975;SDS011;7584;60.468;25.126;2023-05-07T02:24:12;3.40;;;1.53;;
14975;SDS011;7584;60.468;25.126;2023-05-07T02:26:38;2.43;;;1.57;;
14975;SDS011;7584;60.468;25.126;2023-05-07T02:29:03;2.87;;;1.67;;
14975;SDS011;7584;60.468;25.126;2023-05-07T02:31:28;3.00;;;1.70;;
14975;SDS011;7584;60.468;25.126;2023-05-07T02:33:53;2.77;;;1.57;;
14975;SDS011;7584;60.468;25.126;2023-05-07T02:36:19;4.53;;;1.40;;
14975;SDS011;7584;60.468;25.126;2023-05-07T02:38:44;2.10;;;1.37;;
14975;SDS011;7584;60.468;25.126;2023-05-07T02:41:09;3.33;;;1.40;;
14975;SDS011;7584;60.468;25.126;2023-05-07T02:43:35;2.83;;;1.57;;
14975;SDS011;7584;60.468;25.126;2023-05-07T02:46:10;1.73;;;1.27;;
14975;SDS011;7584;60.468;25.126;2023-05-07T02:48:35;1.70;;;1.30;;
14975;SDS011;7584;60.468;25.126;2023-05-07T02:51:01;2.53;;;1.50;;
14975;SDS011;7584;60.468;25.126;2023-05-07T02:53:26;2.37;;;1.70;;
14975;SDS011;7584;60.468;25.126;2023-05-07T02:55:55;2.30;;;1.50;;
14975;SDS011;7584;60.468;25.126;2023-05-07T02:58:21;5.97;;;1.67;;
14975;SDS011;7584;60.468;25.126;2023-05-07T03:00:46;2.77;;;1.60;;
14975;SDS011;7584;60.468;25.126;2023-05-07T03:03:11;2.17;;;1.30;;
14975;SDS011;7584;60.468;25.126;2023-05-07T03:05:36;3.87;;;1.23;;
14975;SDS011;7584;60.468;25.126;2023-05-07T03:08:02;3.23;;;1.70;;
14975;SDS011;7584;60.468;25.126;2023-05-07T03:10:28;3.57;;;1.40;;
14975;SDS011;7584;60.468;25.126;2023-05-07T03:12:54;1.77;;;1.53;;
14975;SDS011;7584;60.468;25.126;2023-05-07T03:15:19;3.13;;;1.50;;
14975;SDS011;7584;60.468;25.126;2023-05-07T03:17:44;3.77;;;1.50;;
14975;SDS011;7584;60.468;25.126;2023-05-07T03:20:10;2.70;;;1.87;;
14975;SDS011;7584;60.468;25.126;2023-05-07T03:22:35;2.27;;;1.33;;
14975;SDS011;7584;60.468;25.126;2023-05-07T03:25:01;1.83;;;1.50;;
14975;SDS011;7584;60.468;25.126;2023-05-07T03:27:26;1.40;;;1.30;;
14975;SDS011;7584;60.468;25.126;2023-05-07T03:29:51;2.13;;;1.30;;
14975;SDS011;7584;60.468;25.126;2023-05-07T03:32:17;2.00;;;1.17;;
14975;SDS011;7584;60.468;25.126;2023-05-07T03:34:42;2.13;;;1.57;;
14975;SDS011;7584;60.468;25.126;2023-05-07T03:37:07;2.73;;;1.60;;
14975;SDS011;7584;60.468;25.126;2023-05-07T03:39:32;2.57;;;1.50;;
14975;SDS011;7584;60.468;25.126;2023-05-07T03:41:58;5.17;;;2.30;;
14975;SDS011;7584;60.468;25.126;2023-05-07T03:44:23;3.23;;;1.33;;
14975;SDS011;7584;60.468;25.126;2023-05-07T03:46:48;1.50;;;1.23;;
14975;SDS011;7584;60.468;25.126;2023-05-07T03:49:14;2.93;;;1.23;;
14975;SDS011;7584;60.468;25.126;2023-05-07T03:51:39;2.93;;;1.20;;
14975;SDS011;7584;60.468;25.126;2023-05-07T03:54:04;2.33;;;1.20;;
14975;SDS011;7584;60.468;25.126;2023-05-07T03:56:30;3.40;;;1.20;;
14975;SDS011;7584;60.468;25.126;2023-05-07T03:58:56;1.97;;;1.30;;
14975;SDS011;7584;60.468;25.126;2023-05-07T04:01:21;2.67;;;1.37;;
14975;SDS011;7584;60.468;25.126;2023-05-07T04:03:46;1.10;;;1.00;;
14975;SDS011;7584;60.468;25.126;2023-05-07T04:06:12;1.73;;;1.40;;
14975;SDS011;7584;60.468;25.126;2023-05-07T04:08:37;2.53;;;1.33;;
14975;SDS011;7584;60.468;25.126;2023-05-07T04:11:02;3.90;;;1.40;;
14975;SDS011;7584;60.468;25.126;2023-05-07T04:13:28;1.90;;;1.20;;
14975;SDS011;7584;60.468;25.126;2023-05-07T04:15:54;4.50;;;1.43;;
14975;SDS011;7584;60.468;25.126;2023-05-07T04:18:20;1.77;;;1.40;;
14975;SDS011;7584;60.468;25.126;2023-05-07T04:20:47;2.20;;;1.57;;
14975;SDS011;7584;60.468;25.126;2023-05-07T04:23:12;2.43;;;1.57;;
14975;SDS011;7584;60.468;25.126;2023-05-07T04:25:37;2.10;;;1.30;;
14975;SDS011;7584;60.468;25.126;2023-05-07T04:28:03;4.23;;;1.57;;
14975;SDS011;7584;60.468;25.126;2023-05-07T04:30:28;2.93;;;1.30;;
14975;SDS011;7584;60.468;25.126;2023-05-07T04:32:53;2.10;;;1.40;;
14975;SDS011;7584;60.468;25.126;2023-05-07T04:35:19;2.27;;;1.60;;
14975;SDS011;7584;60.468;25.126;2023-05-07T04:37:44;2.10;;;1.20;;
14975;SDS011;7584;60.468;25.126;2023-05-07T04:40:09;2.47;;;1.30;;
14975;SDS011;7584;60.468;25.126;2023-05-07T04:42:35;3.50;;;1.47;;
14975;SDS011;7584;60.468;25.126;2023-05-07T04:45:00;1.53;;;1.17;;
14975;SDS011;7584;60.468;25.126;2023-05-07T04:47:26;1.70;;;1.13;;
14975;SDS011;7584;60.468;25.126;2023-05-07T04:49:51;1.53;;;1.40;;
14975;SDS011;7584;60.468;25.126;2023-05-07T04:52:16;2.80;;;1.20;;
14975;SDS011;7584;60.468;25.126;2023-05-07T04:54:42;1.70;;;1.23;;
14975;SDS011;7584;60.468;25.126;2023-05-07T04:57:07;3.27;;;1.27;;
14975;SDS011;7584;60.468;25.126;2023-05-07T04:59:32;1.43;;;1.27;;
14975;SDS011;7584;60.468;25.126;2023-05-07T05:01:58;1.50;;;1.10;;
14975;SDS011;7584;60.468;25.126;2023-05-07T05:04:23;2.57;;;1.37;;
14975;SDS011;7584;60.468;25.126;2023-05-07T05:06:49;4.30;;;1.30;;
14975;SDS011;7584;60.468;25.126;2023-05-07T05:09:14;1.37;;;1.20;;
14975;SDS011;7584;60.468;25.126;2023-05-07T05:11:40;2.60;;;1.50;;
14975;SDS011;7584;60.468;25.126;2023-05-07T05:14:06;1.43;;;1.00;;
14975;SDS011;7584;60.468;25.126;2023-05-07T05:16:31;2.17;;;1.20;;
14975;SDS011;7584;60.468;25.126;2023-05-07T05:18:56;1.27;;;1.17;;
14975;SDS011;7584;60.468;25.126;2023-05-07T05:21:22;1.77;;;1.30;;
14975;SDS011;7584;60.468;25.126;2023-05-07T05:23:47;3.23;;;1.00;;
14975;SDS011;7584;60.468;25.126;2023-05-07T05:26:12;3.03;;;1.20;;
14975;SDS011;7584;60.468;25.126;2023-05-07T05:28:38;3.03;;;1.20;;
14975;SDS011;7584;60.468;25.126;2023-05-07T05:31:03;3.33;;;1.27;;
14975;SDS011;7584;60.468;25.126;2023-05-07T05:33:29;1.23;;;1.10;;
14975;SDS011;7584;60.468;25.126;2023-05-07T05:35:54;1.23;;;1.10;;
14975;SDS011;7584;60.468;25.126;2023-05-07T05:38:19;5.13;;;1.10;;
14975;SDS011;7584;60.468;25.126;2023-05-07T05:40:45;1.33;;;0.90;;
14975;SDS011;7584;60.468;25.126;2023-05-07T05:43:11;1.53;;;1.10;;
14975;SDS011;7584;60.468;25.126;2023-05-07T05:45:36;1.50;;;1.00;;
14975;SDS011;7584;60.468;25.126;2023-05-07T05:48:01;1.63;;;1.20;;
14975;SDS011;7584;60.468;25.126;2023-05-07T05:50:27;2.30;;;0.90;;
14975;SDS011;7584;60.468;25.126;2023-05-07T05:52:52;1.73;;;0.80;;
14975;SDS011;7584;60.468;25.126;2023-05-07T05:55:17;1.20;;;1.07;;
14975;SDS011;7584;60.468;25.126;2023-05-07T05:57:42;1.63;;;1.10;;
14975;SDS011;7584;60.468;25.126;2023-05-07T06:00:08;1.33;;;0.93;;
14975;SDS011;7584;60.468;25.126;2023-05-07T06:02:33;2.93;;;0.90;;
14975;SDS011;7584;60.468;25.126;2023-05-07T06:04:59;1.20;;;0.90;;
14975;SDS011;7584;60.468;25.126;2023-05-07T06:07:24;1.77;;;0.90;;
14975;SDS011;7584;60.468;25.126;2023-05-07T06:09:50;1.87;;;0.93;;
14975;SDS011;7584;60.468;25.126;2023-05-07T06:12:15;2.70;;;0.90;;
14975;SDS011;7584;60.468;25.126;2023-05-07T06:14:42;3.43;;;1.10;;
14975;SDS011;7584;60.468;25.126;2023-05-07T06:17:07;1.00;;;0.77;;
14975;SDS011;7584;60.468;25.126;2023-05-07T06:19:33;2.63;;;0.80;;
14975;SDS011;7584;60.468;25.126;2023-05-07T06:21:58;1.10;;;1.00;;
14975;SDS011;7584;60.468;25.126;2023-05-07T06:24:23;1.70;;;0.90;;
14975;SDS011;7584;60.468;25.126;2023-05-07T06:26:49;1.03;;;0.77;;
14975;SDS011;7584;60.468;25.126;2023-05-07T06:29:14;1.17;;;0.90;;
14975;SDS011;7584;60.468;25.126;2023-05-07T06:31:40;1.80;;;0.90;;
14975;SDS011;7584;60.468;25.126;2023-05-07T06:34:05;2.93;;;0.93;;
14975;SDS011;7584;60.468;25.126;2023-05-07T06:36:31;1.70;;;1.20;;
14975;SDS011;7584;60.468;25.126;2023-05-07T06:38:56;2.13;;;0.80;;
14975;SDS011;7584;60.468;25.126;2023-05-07T06:41:21;1.83;;;1.40;;
14975;SDS011;7584;60.468;25.126;2023-05-07T06:43:47;2.23;;;1.07;;
14975;SDS011;7584;60.468;25.126;2023-05-07T06:46:12;1.10;;;0.93;;
14975;SDS011;7584;60.468;25.126;2023-05-07T06:48:37;2.30;;;0.80;;
14975;SDS011;7584;60.468;25.126;2023-05-07T06:51:02;1.67;;;0.80;;
14975;SDS011;7584;60.468;25.126;2023-05-07T06:53:28;1.20;;;0.82;;
14975;SDS011;7584;60.468;25.126;2023-05-07T06:55:54;0.93;;;0.60;;
14975;SDS011;7584;60.468;25.126;2023-05-07T06:58:19;1.37;;;0.60;;
14975;SDS011;7584;60.468;25.126;2023-05-07T07:00:44;1.00;;;0.80;;
14975;SDS011;7584;60.468;25.126;2023-05-07T07:03:10;2.20;;;1.10;;
14975;SDS011;7584;60.468;25.126;2023-05-07T07:05:36;2.40;;;1.00;;
14975;SDS011;7584;60.468;25.126;2023-05-07T07:08:01;1.47;;;0.90;;
14975;SDS011;7584;60.468;25.126;2023-05-07T07:10:26;1.23;;;0.70;;
14975;SDS011;7584;60.468;25.126;2023-05-07T07:12:51;1.70;;;1.00;;
14975;SDS011;7584;60.468;25.126;2023-05-07T07:15:17;0.75;;;0.60;;
14975;SDS011;7584;60.468;25.126;2023-05-07T07:17:43;0.90;;;0.85;;
14975;SDS011;7584;60.468;25.126;2023-05-07T07:20:08;1.83;;;0.80;;
14975;SDS011;7584;60.468;25.126;2023-05-07T07:22:34;0.93;;;0.77;;
14975;SDS011;7584;60.468;25.126;2023-05-07T07:24:59;1.27;;;0.80;;
14975;SDS011;7584;60.468;25.126;2023-05-07T07:27:25;2.15;;;0.73;;
14975;SDS011;7584;60.468;25.126;2023-05-07T07:29:50;0.90;;;0.70;;
14975;SDS011;7584;60.468;25.126;2023-05-07T07:32:16;0.80;;;0.70;;
14975;SDS011;7584;60.468;25.126;2023-05-07T07:34:41;1.73;;;0.77;;
14975;SDS011;7584;60.468;25.126;2023-05-07T07:37:06;1.83;;;0.82;;
14975;SDS011;7584;60.468;25.126;2023-05-07T07:39:32;1.08;;;0.70;;
14975;SDS011;7584;60.468;25.126;2023-05-07T07:41:57;1.80;;;0.80;;
14975;SDS011;7584;60.468;25.126;2023-05-07T07:44:23;1.95;;;0.70;;
14975;SDS011;7584;60.468;25.126;2023-05-07T07:46:48;1.70;;;0.73;;
14975;SDS011;7584;60.468;25.126;2023-05-07T07:49:13;1.42;;;0.73;;
14975;SDS011;7584;60.468;25.126;2023-05-07T07:51:39;1.58;;;0.60;;
14975;SDS011;7584;60.468;25.126;2023-05-07T07:54:04;2.50;;;0.70;;
14975;SDS011;7584;60.468;25.126;2023-05-07T07:56:31;1.10;;;0.85;;
14975;SDS011;7584;60.468;25.126;2023-05-07T07:58:57;1.13;;;0.75;;
14975;SDS011;7584;60.468;25.126;2023-05-07T08:01:22;1.48;;;0.70;;
14975;SDS011;7584;60.468;25.126;2023-05-07T08:03:48;1.38;;;0.63;;
14975;SDS011;7584;60.468;25.126;2023-05-07T08:06:13;2.28;;;1.08;;
14975;SDS011;7584;60.468;25.126;2023-05-07T08:08:38;0.95;;;0.70;;
14975;SDS011;7584;60.468;25.126;2023-05-07T08:11:04;1.33;;;0.60;;
14975;SDS011;7584;60.468;25.126;2023-05-07T08:13:29;0.73;;;0.68;;
14975;SDS011;7584;60.468;25.126;2023-05-07T08:15:54;0.73;;;0.63;;
14975;SDS011;7584;60.468;25.126;2023-05-07T08:18:20;3.95;;;0.73;;
14975;SDS011;7584;60.468;25.126;2023-05-07T08:20:45;0.55;;;0.52;;
14975;SDS011;7584;60.468;25.126;2023-05-07T08:23:10;0.98;;;0.60;;
14975;SDS011;7584;60.468;25.126;2023-05-07T08:25:36;0.98;;;0.68;;
14975;SDS011;7584;60.468;25.126;2023-05-07T08:28:02;2.88;;;0.70;;
14975;SDS011;7584;60.468;25.126;2023-05-07T08:30:28;1.60;;;0.63;;
14975;SDS011;7584;60.468;25.126;2023-05-07T08:32:53;0.88;;;0.68;;
14975;SDS011;7584;60.468;25.126;2023-05-07T08:35:19;2.63;;;0.70;;
14975;SDS011;7584;60.468;25.126;2023-05-07T08:37:44;2.30;;;0.60;;
14975;SDS011;7584;60.468;25.126;2023-05-07T08:40:09;0.60;;;0.60;;
14975;SDS011;7584;60.468;25.126;2023-05-07T08:42:35;1.95;;;0.50;;
14975;SDS011;7584;60.468;25.126;2023-05-07T08:45:01;1.02;;;0.70;;
14975;SDS011;7584;60.468;25.126;2023-05-07T08:47:32;1.33;;;0.80;;
14975;SDS011;7584;60.468;25.126;2023-05-07T08:49:59;3.70;;;0.65;;
14975;SDS011;7584;60.468;25.126;2023-05-07T08:52:24;1.45;;;0.75;;
14975;SDS011;7584;60.468;25.126;2023-05-07T08:54:50;3.38;;;0.77;;
14975;SDS011;7584;60.468;25.126;2023-05-07T08:57:15;0.70;;;0.60;;
14975;SDS011;7584;60.468;25.126;2023-05-07T08:59:40;0.75;;;0.50;;
14975;SDS011;7584;60.468;25.126;2023-05-07T09:02:07;2.17;;;0.60;;
14975;SDS011;7584;60.468;25.126;2023-05-07T09:04:34;0.85;;;0.82;;
14975;SDS011;7584;60.468;25.126;2023-05-07T09:06:59;0.57;;;0.50;;
14975;SDS011;7584;60.468;25.126;2023-05-07T09:09:31;1.25;;;0.55;;
14975;SDS011;7584;60.468;25.126;2023-05-07T09:11:57;1.38;;;0.52;;
14975;SDS011;7584;60.468;25.126;2023-05-07T09:14:24;1.00;;;0.70;;
14975;SDS011;7584;60.468;25.126;2023-05-07T09:16:51;1.40;;;0.60;;
14975;SDS011;7584;60.468;25.126;2023-05-07T09:19:21;1.40;;;0.70;;
14975;SDS011;7584;60.468;25.126;2023-05-07T09:21:46;1.67;;;0.50;;
14975;SDS011;7584;60.468;25.126;2023-05-07T09:24:14;1.17;;;0.70;;
14975;SDS011;7584;60.468;25.126;2023-05-07T09:26:40;1.38;;;0.70;;
14975;SDS011;7584;60.468;25.126;2023-05-07T09:29:05;1.38;;;0.80;;
14975;SDS011;7584;60.468;25.126;2023-05-07T09:31:31;1.77;;;0.85;;
14975;SDS011;7584;60.468;25.126;2023-05-07T09:33:57;1.40;;;0.65;;
14975;SDS011;7584;60.468;25.126;2023-05-07T09:36:22;1.13;;;0.90;;
14975;SDS011;7584;60.468;25.126;2023-05-07T09:38:47;1.02;;;0.60;;
14975;SDS011;7584;60.468;25.126;2023-05-07T09:41:14;2.35;;;0.80;;
14975;SDS011;7584;60.468;25.126;2023-05-07T09:43:40;1.52;;;0.80;;
14975;SDS011;7584;60.468;25.126;2023-05-07T09:46:06;1.25;;;0.60;;
14975;SDS011;7584;60.468;25.126;2023-05-07T09:48:32;1.67;;;0.65;;
14975;SDS011;7584;60.468;25.126;2023-05-07T09:51:01;2.60;;;0.70;;
14975;SDS011;7584;60.468;25.126;2023-05-07T09:53:27;1.33;;;0.75;;
14975;SDS011;7584;60.468;25.126;2023-05-07T09:55:53;3.13;;;0.80;;
14975;SDS011;7584;60.468;25.126;2023-05-07T09:58:18;3.70;;;0.63;;
14975;SDS011;7584;60.468;25.126;2023-05-07T10:00:44;1.27;;;0.70;;
14975;SDS011;7584;60.468;25.126;2023-05-07T10:03:10;0.88;;;0.60;;
14975;SDS011;7584;60.468;25.126;2023-05-07T10:05:37;1.60;;;0.68;;
14975;SDS011;7584;60.468;25.126;2023-05-07T10:08:03;2.88;;;0.63;;
14975;SDS011;7584;60.468;25.126;2023-05-07T10:10:28;1.98;;;0.80;;
14975;SDS011;7584;60.468;25.126;2023-05-07T10:12:54;2.63;;;0.60;;
14975;SDS011;7584;60.468;25.126;2023-05-07T10:15:19;1.15;;;0.60;;
14975;SDS011;7584;60.468;25.126;2023-05-07T10:17:45;1.95;;;0.70;;
14975;SDS011;7584;60.468;25.126;2023-05-07T10:20:10;2.45;;;0.80;;
14975;SDS011;7584;60.468;25.126;2023-05-07T10:22:40;1.95;;;0.85;;
14975;SDS011;7584;60.468;25.126;2023-05-07T10:25:12;3.20;;;0.90;;
14975;SDS011;7584;60.468;25.126;2023-05-07T10:27:39;1.10;;;0.82;;
14975;SDS011;7584;60.468;25.126;2023-05-07T10:32:37;3.33;;;0.77;;
14975;SDS011;7584;60.468;25.126;2023-05-07T10:35:04;0.80;;;0.60;;
14975;SDS011;7584;60.468;25.126;2023-05-07T10:37:31;1.83;;;0.70;;
14975;SDS011;7584;60.468;25.126;2023-05-07T10:39:56;1.25;;;0.70;;
14975;SDS011;7584;60.468;25.126;2023-05-07T10:42:22;1.27;;;0.70;;
14975;SDS011;7584;60.468;25.126;2023-05-07T10:44:48;2.83;;;0.80;;
14975;SDS011;7584;60.468;25.126;2023-05-07T10:47:14;1.05;;;0.65;;
14975;SDS011;7584;60.468;25.126;2023-05-07T10:54:40;1.08;;;0.60;;
14975;SDS011;7584;60.468;25.126;2023-05-07T10:57:51;2.08;;;1.25;;
14975;SDS011;7584;60.468;25.126;2023-05-07T10:59:51;4.65;;;0.77;;
14975;SDS011;7584;60.468;25.126;2023-05-07T11:02:18;2.10;;;0.90;;
14975;SDS011;7584;60.468;25.126;2023-05-07T11:04:43;1.73;;;0.70;;
14975;SDS011;7584;60.468;25.126;2023-05-07T11:07:25;0.63;;;0.52;;
14975;SDS011;7584;60.468;25.126;2023-05-07T11:12:16;1.55;;;0.80;;
14975;SDS011;7584;60.468;25.126;2023-05-07T11:17:07;2.28;;;0.63;;
14975;SDS011;7584;60.468;25.126;2023-05-07T11:19:52;2.13;;;0.80;;
14975;SDS011;7584;60.468;25.126;2023-05-07T11:25:05;1.15;;;0.75;;
14975;SDS011;7584;60.468;25.126;2023-05-07T11:27:31;1.15;;;0.45;;
14975;SDS011;7584;60.468;25.126;2023-05-07T11:29:56;0.80;;;0.68;;
14975;SDS011;7584;60.468;25.126;2023-05-07T11:32:22;0.93;;;0.80;;
14975;SDS011;7584;60.468;25.126;2023-05-07T11:34:51;0.70;;;0.70;;
14975;SDS011;7584;60.468;25.126;2023-05-07T11:37:16;1.52;;;0.73;;
14975;SDS011;7584;60.468;25.126;2023-05-07T11:39:42;1.92;;;0.70;;
14975;SDS011;7584;60.468;25.126;2023-05-07T11:42:07;1.15;;;0.98;;
14975;SDS011;7584;60.468;25.126;2023-05-07T11:44:49;3.03;;;0.80;;
14975;SDS011;7584;60.468;25.126;2023-05-07T11:47:18;3.63;;;1.00;;
14975;SDS011;7584;60.468;25.126;2023-05-07T11:49:46;2.35;;;0.70;;
14975;SDS011;7584;60.468;25.126;2023-05-07T11:52:12;2.70;;;0.77;;
14975;SDS011;7584;60.468;25.126;2023-05-07T11:54:38;4.05;;;1.02;;
14975;SDS011;7584;60.468;25.126;2023-05-07T11:57:03;1.02;;;0.60;;
14975;SDS011;7584;60.468;25.126;2023-05-07T11:59:28;0.82;;;0.50;;
14975;SDS011;7584;60.468;25.126;2023-05-07T12:01:57;1.73;;;0.85;;
14975;SDS011;7584;60.468;25.126;2023-05-07T12:04:22;1.08;;;0.63;;
14975;SDS011;7584;60.468;25.126;2023-05-07T12:06:48;1.45;;;0.80;;
14975;SDS011;7584;60.468;25.126;2023-05-07T12:09:13;1.80;;;0.75;;
14975;SDS011;7584;60.468;25.126;2023-05-07T12:11:38;1.50;;;0.77;;
14975;SDS011;7584;60.468;25.126;2023-05-07T12:14:05;2.08;;;0.82;;
14975;SDS011;7584;60.468;25.126;2023-05-07T12:16:30;0.95;;;0.80;;
14975;SDS011;7584;60.468;25.126;2023-05-07T12:18:55;2.13;;;0.70;;
14975;SDS011;7584;60.468;25.126;2023-05-07T12:21:23;1.33;;;0.77;;
14975;SDS011;7584;60.468;25.126;2023-05-07T12:23:50;2.58;;;0.70;;
14975;SDS011;7584;60.468;25.126;2023-05-07T12:26:15;1.33;;;0.63;;
14975;SDS011;7584;60.468;25.126;2023-05-07T12:28:42;3.15;;;0.80;;
14975;SDS011;7584;60.468;25.126;2023-05-07T12:31:07;0.70;;;0.50;;
14975;SDS011;7584;60.468;25.126;2023-05-07T12:33:32;1.02;;;0.57;;
14975;SDS011;7584;60.468;25.126;2023-05-07T12:36:02;1.65;;;0.70;;
14975;SDS011;7584;60.468;25.126;2023-05-07T12:38:32;3.25;;;0.70;;
14975;SDS011;7584;60.468;25.126;2023-05-07T12:40:58;4.05;;;0.60;;
14975;SDS011;7584;60.468;25.126;2023-05-07T12:43:27;2.38;;;0.90;;
14975;SDS011;7584;60.468;25.126;2023-05-07T12:45:56;2.85;;;0.80;;
14975;SDS011;7584;60.468;25.126;2023-05-07T12:48:22;0.90;;;0.70;;
14975;SDS011;7584;60.468;25.126;2023-05-07T12:50:51;1.92;;;0.60;;
14975;SDS011;7584;60.468;25.126;2023-05-07T12:53:17;1.77;;;0.90;;
14975;SDS011;7584;60.468;25.126;2023-05-07T12:55:45;1.95;;;0.90;;
14975;SDS011;7584;60.468;25.126;2023-05-07T12:58:44;0.90;;;0.80;;
14975;SDS011;7584;60.468;25.126;2023-05-07T13:01:06;1.85;;;0.57;;
14975;SDS011;7584;60.468;25.126;2023-05-07T13:03:36;2.83;;;0.90;;
14975;SDS011;7584;60.468;25.126;2023-05-07T13:06:03;0.80;;;0.73;;
14975;SDS011;7584;60.468;25.126;2023-05-07T13:08:32;1.05;;;0.73;;
14975;SDS011;7584;60.468;25.126;2023-05-07T13:10:59;2.80;;;0.98;;
14975;SDS011;7584;60.468;25.126;2023-05-07T13:13:25;1.83;;;1.00;;
14975;SDS011;7584;60.468;25.126;2023-05-07T13:15:50;2.17;;;0.68;;
14975;SDS011;7584;60.468;25.126;2023-05-07T13:18:16;2.45;;;0.70;;
14975;SDS011;7584;60.468;25.126;2023-05-07T13:20:42;2.92;;;0.88;;
14975;SDS011;7584;60.468;25.126;2023-05-07T13:23:07;1.27;;;0.60;;
14975;SDS011;7584;60.468;25.126;2023-05-07T13:25:32;1.95;;;0.70;;
14975;SDS011;7584;60.468;25.126;2023-05-07T13:27:58;1.77;;;0.88;;
14975;SDS011;7584;60.468;25.126;2023-05-07T13:30:23;1.10;;;0.90;;
14975;SDS011;7584;60.468;25.126;2023-05-07T13:32:48;2.25;;;0.90;;
14975;SDS011;7584;60.468;25.126;2023-05-07T13:35:15;1.25;;;0.70;;
14975;SDS011;7584;60.468;25.126;2023-05-07T13:37:40;2.10;;;0.73;;
14975;SDS011;7584;60.468;25.126;2023-05-07T13:40:06;1.27;;;0.80;;
14975;SDS011;7584;60.468;25.126;2023-05-07T13:42:31;2.80;;;0.73;;
14975;SDS011;7584;60.468;25.126;2023-05-07T13:44:56;2.67;;;0.80;;
14975;SDS011;7584;60.468;25.126;2023-05-07T13:47:22;0.98;;;0.65;;
14975;SDS011;7584;60.468;25.126;2023-05-07T13:49:47;3.60;;;0.70;;
14975;SDS011;7584;60.468;25.126;2023-05-07T13:52:15;1.02;;;0.57;;
14975;SDS011;7584;60.468;25.126;2023-05-07T13:54:40;2.20;;;0.80;;
14975;SDS011;7584;60.468;25.126;2023-05-07T13:57:05;1.52;;;0.60;;
14975;SDS011;7584;60.468;25.126;2023-05-07T13:59:31;2.17;;;0.77;;
14975;SDS011;7584;60.468;25.126;2023-05-07T14:01:56;1.10;;;0.70;;
14975;SDS011;7584;60.468;25.126;2023-05-07T14:04:21;1.65;;;0.60;;
14975;SDS011;7584;60.468;25.126;2023-05-07T14:06:46;2.65;;;0.60;;
14975;SDS011;7584;60.468;25.126;2023-05-07T14:09:12;1.42;;;0.77;;
14975;SDS011;7584;60.468;25.126;2023-05-07T14:11:38;0.77;;;0.52;;
14975;SDS011;7584;60.468;25.126;2023-05-07T14:14:03;2.22;;;0.70;;
14975;SDS011;7584;60.468;25.126;2023-05-07T14:16:29;0.85;;;0.63;;
14975;SDS011;7584;60.468;25.126;2023-05-07T14:18:54;0.93;;;0.70;;
14975;SDS011;7584;60.468;25.126;2023-05-07T14:21:19;1.85;;;0.70;;
14975;SDS011;7584;60.468;25.126;2023-05-07T14:23:44;1.13;;;0.70;;
14975;SDS011;7584;60.468;25.126;2023-05-07T14:26:10;1.45;;;0.85;;
14975;SDS011;7584;60.468;25.126;2023-05-07T14:28:35;0.98;;;0.70;;
14975;SDS011;7584;60.468;25.126;2023-05-07T14:31:00;0.82;;;0.65;;
14975;SDS011;7584;60.468;25.126;2023-05-07T14:33:26;2.17;;;0.70;;
14975;SDS011;7584;60.468;25.126;2023-05-07T14:35:51;1.67;;;0.70;;
14975;SDS011;7584;60.468;25.126;2023-05-07T14:38:16;3.08;;;0.82;;
14975;SDS011;7584;60.468;25.126;2023-05-07T14:40:41;2.25;;;0.77;;
14975;SDS011;7584;60.468;25.126;2023-05-07T14:43:07;1.77;;;0.90;;
14975;SDS011;7584;60.468;25.126;2023-05-07T14:45:32;5.72;;;1.02;;
14975;SDS011;7584;60.468;25.126;2023-05-07T14:47:57;2.22;;;0.88;;
14975;SDS011;7584;60.468;25.126;2023-05-07T14:50:23;1.10;;;0.77;;
14975;SDS011;7584;60.468;25.126;2023-05-07T14:52:48;3.20;;;1.13;;
14975;SDS011;7584;60.468;25.126;2023-05-07T14:55:13;1.00;;;0.63;;